createdAt,value
2019-01-30T00:00:53.176Z,181.17
2019-01-30T00:03:31.335Z,179.00
2019-01-30T00:06:11.447Z,178.60
2019-01-30T00:08:49.221Z,198.20
2019-01-30T00:11:26.249Z,178.93
2019-01-30T00:14:04.151Z,165.77
2019-01-30T00:16:42.460Z,181.13
2019-01-30T00:19:20.910Z,186.50
2019-01-30T00:22:01.241Z,176.17
2019-01-30T00:24:39.203Z,179.23
2019-01-30T00:27:17.178Z,181.23
2019-01-30T00:30:03.815Z,177.90
2019-01-30T00:32:35.000Z,167.90
2019-01-30T00:35:16.011Z,173.93
2019-01-30T00:37:53.391Z,185.87
2019-01-30T00:40:31.011Z,177.40
2019-01-30T00:43:08.652Z,187.87
2019-01-30T00:45:46.840Z,179.73
2019-01-30T00:48:25.261Z,165.33
2019-01-30T00:51:02.942Z,178.80
2019-01-30T00:53:42.300Z,174.73
2019-01-30T00:56:20.160Z,167.23
2019-01-30T00:58:58.802Z,173.67
2019-01-30T01:01:38.577Z,163.17
2019-01-30T01:04:16.303Z,161.20
2019-01-30T01:06:54.402Z,166.43
2019-01-30T01:09:36.562Z,181.83
2019-01-30T01:12:20.641Z,163.07
2019-01-30T01:14:58.297Z,164.17
2019-01-30T01:17:37.507Z,154.03
2019-01-30T01:20:20.327Z,161.07
2019-01-30T01:23:03.200Z,165.13
2019-01-30T01:25:42.027Z,161.20
2019-01-30T01:28:21.658Z,156.57
2019-01-30T01:31:03.886Z,167.27
2019-01-30T01:33:42.082Z,166.43
2019-01-30T01:36:21.042Z,164.00
2019-01-30T01:38:59.561Z,172.20
2019-01-30T01:41:39.949Z,166.20
2019-01-30T01:44:21.675Z,160.90
2019-01-30T01:47:00.727Z,155.40
2019-01-30T01:49:43.877Z,157.03
2019-01-30T01:52:21.827Z,164.67
2019-01-30T01:54:59.478Z,159.90
2019-01-30T01:57:44.209Z,163.07
2019-01-30T02:00:35.578Z,168.13
2019-01-30T02:03:13.744Z,165.17
2019-01-30T02:05:54.059Z,172.23
2019-01-30T02:08:32.094Z,162.43
2019-01-30T02:11:11.753Z,154.60
2019-01-30T02:13:53.371Z,161.17
2019-01-30T02:16:33.205Z,159.83
2019-01-30T02:19:20.167Z,157.50
2019-01-30T02:22:01.689Z,163.50
2019-01-30T02:24:43.026Z,164.90
2019-01-30T02:27:24.994Z,149.77
2019-01-30T02:30:23.421Z,158.77
2019-01-30T02:33:05.313Z,146.00
2019-01-30T02:35:45.439Z,163.20
2019-01-30T02:38:24.894Z,156.57
2019-01-30T02:41:13.049Z,166.70
2019-01-30T02:43:52.864Z,183.90
2019-01-30T02:46:34.936Z,180.13
2019-01-30T02:49:15.423Z,170.60
2019-01-30T02:51:53.661Z,156.33
2019-01-30T02:54:31.864Z,150.70
2019-01-30T02:57:10.074Z,158.33
2019-01-30T02:59:50.575Z,151.97
2019-01-30T03:02:28.856Z,156.80
2019-01-30T03:05:07.699Z,151.70
2019-01-30T03:07:46.705Z,161.77
2019-01-30T03:10:33.372Z,146.30
2019-01-30T03:13:11.753Z,145.43
2019-01-30T03:15:52.149Z,161.73
2019-01-30T03:18:30.807Z,157.27
2019-01-30T03:21:11.905Z,161.97
2019-01-30T03:23:53.112Z,151.03
2019-01-30T03:26:30.172Z,162.20
2019-01-30T03:29:08.393Z,163.43
2019-01-30T03:31:46.533Z,160.87
2019-01-30T03:34:24.240Z,168.60
2019-01-30T03:37:03.092Z,155.23
2019-01-30T03:39:44.059Z,149.97
2019-01-30T03:42:22.684Z,152.10
2019-01-30T03:45:03.039Z,146.33
2019-01-30T03:47:41.143Z,155.40
2019-01-30T03:50:19.067Z,146.73
2019-01-30T03:52:59.579Z,153.93
2019-01-30T03:55:38.439Z,149.47
2019-01-30T03:58:26.616Z,159.90
2019-01-30T04:01:04.580Z,157.73
2019-01-30T04:03:41.972Z,197.47
2019-01-30T04:06:24.635Z,193.90
2019-01-30T04:09:03.739Z,197.03
2019-01-30T04:11:43.479Z,180.47
2019-01-30T04:14:22.225Z,294.87
2019-01-30T04:17:00.169Z,200.67
2019-01-30T04:19:40.309Z,171.03
2019-01-30T04:22:23.328Z,197.87
2019-01-30T04:25:06.548Z,172.57
2019-01-30T04:27:45.580Z,182.10
2019-01-30T04:30:29.413Z,191.57
2019-01-30T04:33:07.908Z,193.30
2019-01-30T04:36:03.230Z,171.10
2019-01-30T04:38:42.595Z,240.20
2019-01-30T04:41:25.708Z,189.17
2019-01-30T04:44:05.097Z,214.07
2019-01-30T04:46:43.105Z,180.07
2019-01-30T04:49:38.765Z,310.80
2019-01-30T04:52:19.432Z,224.40
2019-01-30T04:54:59.905Z,233.77
2019-01-30T04:57:39.108Z,167.03
2019-01-30T05:00:21.886Z,150.50
2019-01-30T05:03:02.054Z,148.37
2019-01-30T05:05:45.721Z,181.63
2019-01-30T05:08:27.565Z,412.57
2019-01-30T05:11:21.556Z,205.33
2019-01-30T05:14:15.276Z,206.17
2019-01-30T05:16:59.931Z,209.27
2019-01-30T05:19:38.660Z,131.47
2019-01-30T05:22:20.052Z,277.47
2019-01-30T05:24:59.230Z,185.37
2019-01-30T05:27:48.167Z,175.40
2019-01-30T05:30:35.762Z,162.43
2019-01-30T05:33:16.090Z,175.97
2019-01-30T05:35:56.936Z,316.33
2019-01-30T05:38:42.810Z,153.67
2019-01-30T05:41:23.832Z,124.23
2019-01-30T05:44:01.837Z,117.90
2019-01-30T05:46:44.365Z,116.90
2019-01-30T05:49:25.502Z,108.20
2019-01-30T05:52:13.248Z,99.93
2019-01-30T05:54:52.691Z,98.70
2019-01-30T05:57:35.531Z,144.60
2019-01-30T06:00:20.768Z,130.53
2019-01-30T06:03:00.953Z,108.97
2019-01-30T06:05:52.015Z,97.57
2019-01-30T06:08:54.125Z,95.53
2019-01-30T06:11:32.964Z,110.33
2019-01-30T06:14:11.619Z,108.83
2019-01-30T06:16:56.281Z,93.03
2019-01-30T06:19:38.691Z,93.00
2019-01-30T06:22:21.973Z,105.47
2019-01-30T06:25:10.099Z,105.67
2019-01-30T06:27:53.385Z,99.80
2019-01-30T06:30:36.800Z,103.80
2019-01-30T06:33:24.455Z,134.87
2019-01-30T06:36:12.223Z,100.20
2019-01-30T06:38:52.364Z,105.37
2019-01-30T06:41:41.137Z,115.00
2019-01-30T06:44:22.659Z,108.43
2019-01-30T06:47:03.744Z,117.43
2019-01-30T06:49:58.347Z,107.97
2019-01-30T06:52:57.042Z,108.13
2019-01-30T06:55:44.779Z,110.27
2019-01-30T06:58:26.144Z,121.43
2019-01-30T07:01:08.126Z,118.83
2019-01-30T07:03:49.402Z,118.43
2019-01-30T07:06:35.227Z,125.97
2019-01-30T07:09:21.505Z,121.60
2019-01-30T07:12:00.676Z,123.27
2019-01-30T07:14:41.371Z,110.70
2019-01-30T07:17:21.263Z,117.80
2019-01-30T07:20:02.278Z,108.97
2019-01-30T07:22:53.835Z,102.67
2019-01-30T07:25:36.726Z,116.37
2019-01-30T07:28:17.666Z,115.20
2019-01-30T07:30:59.355Z,118.87
2019-01-30T07:33:40.477Z,108.30
2019-01-30T07:36:19.721Z,109.23
2019-01-30T07:39:00.438Z,124.37
2019-01-30T07:41:46.095Z,102.10
2019-01-30T07:44:28.624Z,107.23
2019-01-30T07:47:09.252Z,104.30
2019-01-30T07:49:51.687Z,103.27
2019-01-30T07:52:32.783Z,107.27
2019-01-30T07:55:18.975Z,113.87
2019-01-30T07:58:00.797Z,114.77
2019-01-30T08:00:56.613Z,109.60
2019-01-30T08:03:38.989Z,97.60
2019-01-30T08:06:19.780Z,94.77
2019-01-30T08:09:04.507Z,97.17
2019-01-30T08:11:52.406Z,93.60
2019-01-30T08:14:32.246Z,92.43
2019-01-30T08:17:13.020Z,86.43
2019-01-30T08:20:04.729Z,88.47
2019-01-30T08:22:54.376Z,99.67
2019-01-30T08:25:35.342Z,126.13
2019-01-30T08:28:15.972Z,114.80
2019-01-30T08:30:59.239Z,91.43
2019-01-30T08:33:44.170Z,87.20
2019-01-30T08:36:26.050Z,91.60
2019-01-30T08:39:18.529Z,90.23
2019-01-30T08:42:01.706Z,110.17
2019-01-30T08:44:54.534Z,103.77
2019-01-30T08:47:43.036Z,94.27
2019-01-30T08:50:26.623Z,90.63
2019-01-30T08:53:10.022Z,83.37
2019-01-30T08:55:50.045Z,84.50
2019-01-30T08:58:33.809Z,91.37
2019-01-30T09:01:15.919Z,88.43
2019-01-30T09:04:06.156Z,93.73
2019-01-30T09:06:44.543Z,89.13
2019-01-30T09:09:23.746Z,111.83
2019-01-30T09:12:10.961Z,106.73
2019-01-30T09:14:57.206Z,96.60
2019-01-30T09:17:36.920Z,99.70
2019-01-30T09:20:22.404Z,106.83
2019-01-30T09:23:01.293Z,104.03
2019-01-30T09:25:40.305Z,99.07
2019-01-30T09:28:25.059Z,99.27
2019-01-30T09:31:07.839Z,98.80
2019-01-30T09:33:47.053Z,95.87
2019-01-30T09:36:27.980Z,94.50
2019-01-30T09:39:10.313Z,92.23
2019-01-30T09:41:52.361Z,95.97
2019-01-30T09:44:35.018Z,91.90
2019-01-30T09:47:18.659Z,93.37
2019-01-30T09:50:00.872Z,87.97
2019-01-30T09:52:42.202Z,91.23
2019-01-30T09:55:23.878Z,94.43
2019-01-30T09:58:02.458Z,98.40
2019-01-30T10:00:42.842Z,128.53
2019-01-30T10:03:21.097Z,134.30
2019-01-30T10:06:09.581Z,119.07
2019-01-30T10:08:49.119Z,122.07
2019-01-30T10:11:29.913Z,147.33
2019-01-30T10:14:18.871Z,118.83
2019-01-30T10:17:01.277Z,123.30
2019-01-30T10:19:41.883Z,132.20
2019-01-30T10:22:25.102Z,232.13
2019-01-30T10:25:03.443Z,185.53
2019-01-30T10:27:43.388Z,120.27
2019-01-30T10:30:27.916Z,105.17
2019-01-30T10:33:16.726Z,108.13
2019-01-30T10:36:03.350Z,109.53
2019-01-30T10:38:42.515Z,105.10
2019-01-30T10:41:20.261Z,108.27
2019-01-30T10:44:04.893Z,122.67
2019-01-30T10:46:51.359Z,136.73
2019-01-30T10:49:32.518Z,128.63
2019-01-30T10:52:10.253Z,129.37
2019-01-30T10:54:48.442Z,128.03
2019-01-30T10:57:27.544Z,109.63
2019-01-30T11:00:08.169Z,115.63
2019-01-30T11:02:48.593Z,106.70
2019-01-30T11:05:29.094Z,127.13
2019-01-30T11:08:10.116Z,130.50
2019-01-30T11:10:50.745Z,133.63
2019-01-30T11:13:30.508Z,143.90
2019-01-30T11:16:24.707Z,132.33
2019-01-30T11:19:12.363Z,113.97
2019-01-30T11:21:57.565Z,113.87
2019-01-30T11:24:39.637Z,124.87
2019-01-30T11:27:22.251Z,135.07
2019-01-30T11:30:06.263Z,126.33
2019-01-30T11:32:49.326Z,199.53
2019-01-30T11:35:33.195Z,190.77
2019-01-30T11:38:11.857Z,175.13
2019-01-30T11:40:56.709Z,150.53
2019-01-30T11:43:44.692Z,147.60
2019-01-30T11:46:23.832Z,133.20
2019-01-30T11:49:04.913Z,145.00
2019-01-30T11:51:55.911Z,184.83
2019-01-30T11:54:38.874Z,144.00
2019-01-30T11:57:20.235Z,179.90
2019-01-30T12:00:10.848Z,149.40
2019-01-30T12:03:01.974Z,238.33
2019-01-30T12:05:46.934Z,171.00
2019-01-30T12:08:29.177Z,144.37
2019-01-30T12:11:12.284Z,129.20
2019-01-30T12:13:53.399Z,134.40
2019-01-30T12:16:33.068Z,146.00
2019-01-30T12:19:14.303Z,156.37
2019-01-30T12:21:52.209Z,134.97
2019-01-30T12:24:37.912Z,143.23
2019-01-30T12:27:27.884Z,145.80
2019-01-30T12:30:16.908Z,139.20
2019-01-30T12:32:57.112Z,147.60
2019-01-30T12:35:46.908Z,196.53
2019-01-30T12:38:29.977Z,181.37
2019-01-30T12:41:13.124Z,167.50
2019-01-30T12:43:57.606Z,145.17
2019-01-30T12:46:48.128Z,226.03
2019-01-30T12:49:42.374Z,451.07
2019-01-30T12:52:51.405Z,263.53
2019-01-30T12:55:58.332Z,172.00
2019-01-30T12:58:40.548Z,152.20
2019-01-30T13:01:30.942Z,146.07
2019-01-30T13:04:38.676Z,150.07
2019-01-30T13:07:39.805Z,206.80
2019-01-30T13:10:27.101Z,268.67
2019-01-30T13:13:29.546Z,218.60
2019-01-30T13:16:16.373Z,170.20
2019-01-30T13:18:59.715Z,152.70
2019-01-30T13:21:47.052Z,146.60
2019-01-30T13:24:41.750Z,149.90
2019-01-30T13:27:44.938Z,157.87
2019-01-30T13:30:43.892Z,154.90
2019-01-30T13:33:37.151Z,144.83
2019-01-30T13:36:22.512Z,151.80
2019-01-30T13:39:07.251Z,140.73
2019-01-30T13:42:04.624Z,147.97
2019-01-30T13:44:47.050Z,144.20
2019-01-30T13:47:46.173Z,146.80
2019-01-30T13:54:02.581Z,138.10
2019-01-30T13:56:56.750Z,153.90
2019-01-30T14:04:00.336Z,157.33
2019-01-30T14:07:24.115Z,147.60
2019-01-30T14:13:30.167Z,167.73
2019-01-30T14:16:23.517Z,331.40
2019-01-30T14:19:33.560Z,232.90
2019-01-30T14:22:37.713Z,164.37
2019-01-30T14:25:37.369Z,159.00
2019-01-30T14:28:17.511Z,158.63
2019-01-30T14:31:09.503Z,155.10
2019-01-30T14:34:27.302Z,157.60
2019-01-30T14:40:33.952Z,168.83
2019-01-30T14:43:52.333Z,164.53
2019-01-30T14:46:58.877Z,161.10
2019-01-30T14:50:00.523Z,160.13
2019-01-30T14:53:15.366Z,161.30
2019-01-30T14:56:13.965Z,159.60
2019-01-30T14:59:15.598Z,171.03
2019-01-30T15:02:15.472Z,169.27
2019-01-30T15:05:21.784Z,160.47
2019-01-30T15:08:03.670Z,159.60
2019-01-30T15:11:19.919Z,157.13
2019-01-30T15:14:10.440Z,165.80
2019-01-30T15:17:16.784Z,160.37
2019-01-30T15:20:02.834Z,164.33
2019-01-30T15:23:04.917Z,167.83
2019-01-30T15:25:50.779Z,159.57
2019-01-30T15:28:47.903Z,154.30
2019-01-30T15:31:43.114Z,165.07
2019-01-30T15:34:28.488Z,162.53
2019-01-30T15:37:12.325Z,158.83
2019-01-30T15:40:13.526Z,163.73
2019-01-30T15:43:23.926Z,157.40
2019-01-30T15:46:30.484Z,201.90
2019-01-30T15:49:17.164Z,188.23
2019-01-30T15:52:07.706Z,176.43
2019-01-30T15:55:19.165Z,168.13
2019-01-30T15:58:25.158Z,158.60
2019-01-30T16:01:15.034Z,166.47
2019-01-30T16:04:05.952Z,163.70
2019-01-30T16:06:52.417Z,157.70
2019-01-30T16:09:40.354Z,149.17
2019-01-30T16:12:37.532Z,160.87
2019-01-30T16:15:38.695Z,157.93
2019-01-30T16:18:45.836Z,158.50
2019-01-30T16:21:50.941Z,156.70
2019-01-30T16:24:53.427Z,152.67
2019-01-30T16:30:50.179Z,152.87
2019-01-30T16:33:44.490Z,160.17
2019-01-30T16:36:35.578Z,158.73
2019-01-30T16:39:29.213Z,153.37
2019-01-30T16:42:18.145Z,160.10
2019-01-30T16:45:18.811Z,159.53
2019-01-30T16:48:04.062Z,153.67
2019-01-30T16:50:51.721Z,175.07
2019-01-30T16:53:42.127Z,172.83
2019-01-30T16:56:34.933Z,165.53
2019-01-30T16:59:34.211Z,165.53
2019-01-30T17:02:16.272Z,171.13
2019-01-30T17:05:03.269Z,168.17
2019-01-30T17:07:49.428Z,169.77
2019-01-30T17:10:31.441Z,161.57
2019-01-30T17:13:12.764Z,166.43
2019-01-30T17:15:56.026Z,177.57
2019-01-30T17:18:35.785Z,173.87
2019-01-30T17:21:16.723Z,187.63
2019-01-30T17:24:02.486Z,174.97
2019-01-30T17:26:42.291Z,169.13
2019-01-30T17:29:22.719Z,158.60
2019-01-30T17:31:59.186Z,161.90
2019-01-30T17:34:43.285Z,170.57
2019-01-30T17:37:25.282Z,167.23
2019-01-30T17:40:03.522Z,158.77
2019-01-30T17:42:43.180Z,164.20
2019-01-30T17:45:22.199Z,164.20
2019-01-30T17:48:02.193Z,158.13
2019-01-30T17:50:40.467Z,155.93
2019-01-30T17:53:17.790Z,144.90
2019-01-30T17:55:57.676Z,154.57
2019-01-30T17:58:37.615Z,154.53
2019-01-30T18:01:18.748Z,157.77
2019-01-30T18:03:58.117Z,155.20
2019-01-30T18:06:36.644Z,154.77
2019-01-30T18:09:17.779Z,151.63
2019-01-30T18:12:03.040Z,142.17
2019-01-30T18:14:43.653Z,147.50
2019-01-30T18:17:22.717Z,149.70
2019-01-30T18:20:02.370Z,154.07
2019-01-30T18:22:40.502Z,135.70
2019-01-30T18:25:18.900Z,137.17
2019-01-30T18:27:56.656Z,138.43
2019-01-30T18:30:34.768Z,140.63
2019-01-30T18:33:15.634Z,136.63
2019-01-30T18:35:54.965Z,148.07
2019-01-30T18:38:35.958Z,141.27
2019-01-30T18:41:13.261Z,140.47
2019-01-30T18:43:51.372Z,142.50
2019-01-30T18:46:29.275Z,149.33
2019-01-30T18:49:12.119Z,136.77
2019-01-30T18:51:54.078Z,139.57
2019-01-30T18:54:32.202Z,144.07
2019-01-30T18:57:10.069Z,142.00
2019-01-30T18:59:48.286Z,150.63
2019-01-30T19:02:26.084Z,144.03
2019-01-30T19:05:07.440Z,138.73
2019-01-30T19:07:45.550Z,148.90
2019-01-30T19:10:23.340Z,156.03
2019-01-30T19:13:05.562Z,153.47
2019-01-30T19:15:44.842Z,151.03
2019-01-30T19:18:23.859Z,153.20
2019-01-30T19:21:02.068Z,148.83
2019-01-30T19:23:41.015Z,146.87
2019-01-30T19:26:19.422Z,146.00
2019-01-30T19:28:57.935Z,138.33
2019-01-30T19:31:37.199Z,138.20
2019-01-30T19:34:16.024Z,157.53
2019-01-30T19:37:03.242Z,155.37
2019-01-30T19:39:32.426Z,159.07
2019-01-30T19:42:10.268Z,155.13
2019-01-30T19:44:47.931Z,159.73
2019-01-30T19:47:26.204Z,163.33
2019-01-30T19:50:06.512Z,161.87
2019-01-30T19:52:43.506Z,155.43
2019-01-30T19:55:21.018Z,157.10
2019-01-30T19:58:00.851Z,167.63
2019-01-30T20:00:44.627Z,165.73
2019-01-30T20:03:25.625Z,166.17
2019-01-30T20:06:04.084Z,194.97
2019-01-30T20:08:42.051Z,211.40
2019-01-30T20:11:22.411Z,209.20
2019-01-30T20:14:00.109Z,198.57
2019-01-30T20:16:39.088Z,190.03
2019-01-30T20:19:17.391Z,190.13
2019-01-30T20:21:55.104Z,187.37
2019-01-30T20:24:32.719Z,183.00
2019-01-30T20:27:10.626Z,186.43
2019-01-30T20:29:49.541Z,180.50
2019-01-30T20:32:28.141Z,194.23
2019-01-30T20:35:05.733Z,205.70
2019-01-30T20:37:45.765Z,198.13
2019-01-30T20:40:25.293Z,182.60
2019-01-30T20:43:04.623Z,185.53
2019-01-30T20:45:42.294Z,179.40
2019-01-30T20:48:20.907Z,182.63
2019-01-30T20:50:59.361Z,187.97
2019-01-30T20:53:37.453Z,179.13
2019-01-30T20:56:14.896Z,174.90
2019-01-30T20:58:53.093Z,163.40
2019-01-30T21:01:30.471Z,172.23
2019-01-30T21:04:09.602Z,174.40
2019-01-30T21:06:47.650Z,177.83
2019-01-30T21:09:25.646Z,174.27
2019-01-30T21:12:02.936Z,182.53
2019-01-30T21:14:40.885Z,172.60
2019-01-30T21:17:19.945Z,173.53
2019-01-30T21:19:58.280Z,165.90
2019-01-30T21:22:36.337Z,186.23
2019-01-30T21:25:17.767Z,174.33
2019-01-30T21:27:56.250Z,176.73
2019-01-30T21:30:36.143Z,186.93
2019-01-30T21:33:15.323Z,180.33
2019-01-30T21:35:53.758Z,173.53
2019-01-30T21:38:31.587Z,176.90
2019-01-30T21:41:10.340Z,172.57
2019-01-30T21:43:47.313Z,184.60
2019-01-30T21:46:24.805Z,168.13
2019-01-30T21:49:03.540Z,174.73
2019-01-30T21:51:42.213Z,169.90
2019-01-30T21:54:21.387Z,167.63
2019-01-30T21:56:59.381Z,176.87
2019-01-30T21:59:36.932Z,177.13
2019-01-30T22:02:14.552Z,166.60
2019-01-30T22:04:54.044Z,172.80
2019-01-30T22:07:32.027Z,162.27
2019-01-30T22:10:13.204Z,179.87
2019-01-30T22:12:55.516Z,169.37
2019-01-30T22:15:33.202Z,176.60
2019-01-30T22:18:11.721Z,179.07
2019-01-30T22:20:50.150Z,180.17
2019-01-30T22:23:28.330Z,181.17
2019-01-30T22:26:06.557Z,177.53
2019-01-30T22:28:44.594Z,170.73
2019-01-30T22:31:22.266Z,171.50
2019-01-30T22:34:01.174Z,171.20
2019-01-30T22:36:39.592Z,166.23
2019-01-30T22:39:20.101Z,179.53
2019-01-30T22:41:58.180Z,180.43
2019-01-30T22:44:36.447Z,173.07
2019-01-30T22:47:14.371Z,177.77
2019-01-30T22:49:52.373Z,166.60
2019-01-30T22:52:30.090Z,173.53
2019-01-30T22:55:08.373Z,174.43
2019-01-30T22:57:46.098Z,178.43
2019-01-30T23:01:05.608Z,176.47
2019-01-30T23:04:10.105Z,171.43
2019-01-30T23:06:59.876Z,169.17
2019-01-30T23:10:15.686Z,179.73
2019-01-30T23:13:26.988Z,178.53
2019-01-30T23:16:24.559Z,183.63
2019-01-30T23:19:25.112Z,182.97
2019-01-30T23:22:19.962Z,171.13
2019-01-30T23:25:33.029Z,175.50
2019-01-30T23:28:49.054Z,176.30
2019-01-30T23:31:47.253Z,169.47
2019-01-30T23:35:20.612Z,168.40
2019-01-30T23:38:40.534Z,178.83
2019-01-30T23:41:51.271Z,173.17
2019-01-30T23:44:59.740Z,170.20
2019-01-30T23:48:14.743Z,188.83
2019-01-30T23:51:19.245Z,165.43
2019-01-30T23:54:39.024Z,174.83
2019-01-30T23:57:54.450Z,173.30
